createdAt,value
2018-04-22T00:01:59.126Z,16.40
2018-04-22T00:04:27.345Z,16.50
2018-04-22T00:07:00.066Z,16.50
2018-04-22T00:09:27.503Z,16.60
2018-04-22T00:11:54.941Z,16.60
2018-04-22T00:14:22.402Z,16.60
2018-04-22T00:16:50.614Z,16.70
2018-04-22T00:19:18.058Z,16.60
2018-04-22T00:21:45.519Z,16.70
2018-04-22T00:24:12.978Z,16.70
2018-04-22T00:26:40.408Z,16.70
2018-04-22T00:29:07.872Z,16.70
2018-04-22T00:31:35.302Z,16.70
2018-04-22T00:34:02.744Z,16.70
2018-04-22T00:36:30.191Z,16.70
2018-04-22T00:38:57.641Z,16.70
2018-04-22T00:41:25.089Z,16.70
2018-04-22T00:43:52.529Z,16.80
2018-04-22T00:46:20.730Z,16.70
2018-04-22T00:48:48.180Z,16.70
2018-04-22T00:51:15.629Z,16.80
2018-04-22T00:53:54.777Z,16.70
2018-04-22T00:56:22.230Z,16.80
2018-04-22T00:58:49.672Z,16.80
2018-04-22T01:01:17.120Z,16.80
2018-04-22T01:03:44.559Z,16.80
2018-04-22T01:06:12.760Z,16.80
2018-04-22T01:08:40.212Z,16.80
2018-04-22T01:11:07.640Z,16.80
2018-04-22T01:13:35.874Z,16.80
2018-04-22T01:16:03.310Z,16.70
2018-04-22T01:18:30.745Z,16.80
2018-04-22T01:20:58.217Z,16.70
2018-04-22T01:23:25.675Z,16.80
2018-04-22T01:25:53.133Z,16.80
2018-04-22T01:28:20.589Z,16.80
2018-04-22T01:30:48.034Z,16.80
2018-04-22T01:33:15.475Z,16.80
2018-04-22T01:35:43.692Z,16.80
2018-04-22T01:38:11.128Z,16.80
2018-04-22T01:40:38.568Z,16.80
2018-04-22T01:43:06.011Z,16.80
2018-04-22T01:45:34.212Z,16.80
2018-04-22T01:48:01.662Z,16.80
2018-04-22T01:50:29.116Z,16.70
2018-04-22T01:52:56.560Z,16.70
2018-04-22T01:55:23.994Z,16.80
2018-04-22T01:57:52.210Z,16.70
2018-04-22T02:00:19.655Z,16.70
2018-04-22T02:02:47.080Z,16.70
2018-04-22T02:05:15.295Z,16.70
2018-04-22T02:07:42.725Z,16.70
2018-04-22T02:10:10.155Z,16.70
2018-04-22T02:12:38.374Z,16.60
2018-04-22T02:15:05.807Z,16.60
2018-04-22T02:17:33.245Z,16.60
2018-04-22T02:20:01.460Z,16.60
2018-04-22T02:22:28.887Z,16.60
2018-04-22T02:24:57.087Z,16.60
2018-04-22T02:27:24.544Z,16.60
2018-04-22T02:29:51.975Z,16.60
2018-04-22T02:32:19.413Z,16.60
2018-04-22T02:34:47.627Z,16.60
2018-04-22T02:37:15.068Z,16.50
2018-04-22T02:39:42.502Z,16.50
2018-04-22T02:42:10.710Z,16.50
2018-04-22T02:44:38.153Z,16.40
2018-04-22T02:47:05.591Z,16.40
2018-04-22T02:49:33.807Z,16.30
2018-04-22T02:52:01.245Z,16.30
2018-04-22T02:54:28.717Z,16.30
2018-04-22T02:56:56.187Z,16.20
2018-04-22T02:59:23.623Z,16.20
2018-04-22T03:01:51.063Z,16.10
2018-04-22T03:04:18.509Z,16.00
2018-04-22T03:06:45.949Z,16.00
2018-04-22T03:09:14.151Z,15.90
2018-04-22T03:11:41.611Z,15.80
2018-04-22T03:14:09.051Z,15.80
2018-04-22T03:16:36.480Z,15.70
2018-04-22T03:19:05.283Z,15.60
2018-04-22T03:21:32.717Z,15.60
2018-04-22T03:24:00.922Z,15.60
2018-04-22T03:26:28.490Z,15.60
2018-04-22T03:28:55.924Z,15.50
2018-04-22T03:31:23.357Z,15.50
2018-04-22T03:33:51.593Z,15.50
2018-04-22T03:36:19.037Z,15.40
2018-04-22T03:38:46.476Z,15.40
2018-04-22T03:41:13.946Z,15.40
2018-04-22T03:43:41.386Z,15.40
2018-04-22T03:46:08.832Z,15.30
2018-04-22T03:48:36.302Z,15.30
2018-04-22T03:51:03.739Z,15.30
2018-04-22T03:53:31.954Z,15.20
2018-04-22T03:55:59.434Z,15.20
2018-04-22T03:58:26.866Z,15.20
2018-04-22T04:00:54.303Z,15.20
2018-04-22T04:03:21.759Z,15.10
2018-04-22T04:05:49.213Z,15.10
2018-04-22T04:08:16.671Z,15.10
2018-04-22T04:10:44.142Z,15.10
2018-04-22T04:13:11.583Z,15.00
2018-04-22T04:15:39.084Z,15.00
2018-04-22T04:21:29.256Z,14.90
2018-04-22T04:27:21.181Z,14.80
2018-04-22T04:29:48.655Z,14.80
2018-04-22T04:32:16.070Z,14.70
2018-04-22T04:34:44.273Z,14.70
2018-04-22T04:37:11.771Z,14.70
2018-04-22T04:39:39.172Z,14.70
2018-04-22T04:42:06.599Z,14.70
2018-04-22T04:44:34.829Z,14.60
2018-04-22T04:47:02.285Z,14.60
2018-04-22T04:49:29.719Z,14.60
2018-04-22T04:51:57.188Z,14.60
2018-04-22T04:54:24.639Z,14.60
2018-04-22T04:56:52.081Z,14.50
2018-04-22T04:59:19.525Z,14.50
2018-04-22T05:01:47.003Z,14.50
2018-04-22T05:04:14.440Z,14.50
2018-04-22T05:06:41.879Z,14.50
2018-04-22T05:09:10.101Z,14.50
2018-04-22T05:11:37.532Z,14.50
2018-04-22T05:14:04.996Z,14.50
2018-04-22T05:16:32.435Z,14.50
2018-04-22T05:18:59.903Z,14.50
2018-04-22T05:21:27.346Z,14.50
2018-04-22T05:23:54.794Z,14.50
2018-04-22T05:26:22.271Z,14.50
2018-04-22T05:28:49.740Z,14.50
2018-04-22T05:31:17.186Z,14.40
2018-04-22T05:33:44.643Z,14.50
2018-04-22T05:36:12.079Z,14.50
2018-04-22T05:38:39.543Z,14.50
2018-04-22T05:41:06.984Z,14.50
2018-04-22T05:43:35.197Z,14.50
2018-04-22T05:46:02.655Z,14.50
2018-04-22T05:48:30.103Z,14.50
2018-04-22T05:50:57.546Z,14.60
2018-04-22T05:53:25.015Z,14.60
2018-04-22T05:55:52.462Z,14.60
2018-04-22T05:58:19.909Z,14.60
2018-04-22T06:00:47.342Z,14.60
2018-04-22T06:03:15.590Z,14.70
2018-04-22T06:05:43.031Z,14.70
2018-04-22T06:08:10.472Z,14.70
2018-04-22T06:10:37.944Z,14.80
2018-04-22T06:13:05.368Z,14.80
2018-04-22T06:15:32.828Z,14.80
2018-04-22T06:18:00.263Z,14.90
2018-04-22T06:20:27.714Z,14.90
2018-04-22T06:22:55.244Z,14.90
2018-04-22T06:25:22.635Z,15.00
2018-04-22T06:27:50.065Z,15.00
2018-04-22T06:30:18.305Z,15.10
2018-04-22T06:32:46.501Z,15.20
2018-04-22T06:35:14.712Z,15.20
2018-04-22T06:37:42.965Z,15.20
2018-04-22T06:40:10.439Z,15.30
2018-04-22T06:42:37.893Z,15.40
2018-04-22T06:45:05.349Z,15.40
2018-04-22T06:47:32.792Z,15.50
2018-04-22T06:50:00.474Z,15.50
2018-04-22T06:52:27.917Z,15.60
2018-04-22T06:54:55.349Z,15.60
2018-04-22T06:57:23.565Z,15.80
2018-04-22T06:59:51.002Z,15.80
2018-04-22T07:02:18.466Z,15.90
2018-04-22T07:04:45.917Z,16.00
2018-04-22T07:07:13.420Z,16.10
2018-04-22T07:09:40.864Z,16.20
2018-04-22T07:12:08.305Z,16.30
2018-04-22T07:14:35.783Z,16.40
2018-04-22T07:17:03.237Z,16.50
2018-04-22T07:19:30.672Z,16.60
2018-04-22T07:21:58.138Z,16.60
2018-04-22T07:24:25.581Z,16.70
2018-04-22T07:26:53.015Z,16.70
2018-04-22T07:29:20.512Z,16.70
2018-04-22T07:31:47.937Z,16.80
2018-04-22T07:34:15.362Z,16.80
2018-04-22T07:36:43.595Z,16.90
2018-04-22T07:39:11.104Z,16.90
2018-04-22T07:41:38.537Z,17.00
2018-04-22T07:44:06.757Z,17.20
2018-04-22T07:46:34.213Z,17.20
2018-04-22T07:49:01.653Z,17.20
2018-04-22T07:51:29.082Z,17.20
2018-04-22T07:53:57.314Z,17.30
2018-04-22T07:56:24.754Z,17.20
2018-04-22T07:58:52.197Z,17.30
2018-04-22T08:01:19.741Z,17.30
2018-04-22T08:03:47.173Z,17.30
2018-04-22T08:06:15.391Z,17.40
2018-04-22T08:08:42.859Z,17.40
2018-04-22T08:11:10.358Z,17.50
2018-04-22T08:13:37.809Z,17.50
2018-04-22T08:16:06.022Z,17.70
2018-04-22T08:18:33.467Z,17.60
2018-04-22T08:21:00.924Z,17.70
2018-04-22T08:23:28.361Z,17.80
2018-04-22T08:25:56.561Z,18.00
2018-04-22T08:28:24.069Z,17.90
2018-04-22T08:30:51.486Z,18.10
2018-04-22T08:33:18.975Z,18.10
2018-04-22T08:35:46.382Z,18.20
2018-04-22T08:38:13.863Z,18.30
2018-04-22T08:40:41.300Z,18.30
2018-04-22T08:43:08.749Z,18.40
2018-04-22T08:45:36.247Z,18.50
2018-04-22T08:48:04.453Z,18.60
2018-04-22T08:50:31.896Z,18.50
2018-04-22T08:53:00.118Z,18.60
2018-04-22T08:55:27.575Z,18.60
2018-04-22T08:57:55.018Z,18.60
2018-04-22T09:00:22.453Z,18.70
2018-04-22T09:02:50.694Z,19.00
2018-04-22T09:05:18.127Z,18.90
2018-04-22T09:07:45.565Z,18.90
2018-04-22T09:10:13.022Z,18.90
2018-04-22T09:12:40.488Z,18.80
2018-04-22T09:15:07.956Z,18.80
2018-04-22T09:17:35.402Z,19.00
2018-04-22T09:20:02.853Z,19.00
2018-04-22T09:22:30.374Z,19.10
2018-04-22T09:24:57.836Z,19.10
2018-04-22T09:27:26.134Z,19.20
2018-04-22T09:29:53.630Z,19.20
2018-04-22T09:32:21.081Z,19.20
2018-04-22T09:34:48.513Z,19.20
2018-04-22T09:37:15.986Z,19.20
2018-04-22T09:39:44.183Z,19.30
2018-04-22T09:42:11.618Z,19.30
2018-04-22T09:44:39.327Z,19.30
2018-04-22T09:47:07.534Z,19.30
2018-04-22T09:49:34.993Z,19.30
2018-04-22T09:52:02.439Z,19.30
2018-04-22T09:54:29.886Z,19.30
2018-04-22T09:56:57.327Z,19.40
2018-04-22T09:59:24.828Z,19.40
2018-04-22T10:01:52.281Z,19.50
2018-04-22T10:04:19.723Z,19.40
2018-04-22T10:06:47.240Z,19.40
2018-04-22T10:09:14.685Z,19.50
2018-04-22T10:11:42.879Z,19.60
2018-04-22T10:14:10.349Z,19.60
2018-04-22T10:16:37.803Z,19.60
2018-04-22T10:19:05.238Z,19.80
2018-04-22T10:21:32.717Z,19.80
2018-04-22T10:24:00.163Z,19.90
2018-04-22T10:26:27.605Z,19.90
2018-04-22T10:28:55.066Z,19.90
2018-04-22T10:31:22.511Z,19.90
2018-04-22T10:33:50.000Z,19.90
2018-04-22T10:36:17.428Z,19.90
2018-04-22T10:38:44.875Z,19.90
2018-04-22T10:41:13.111Z,19.90
2018-04-22T10:43:40.594Z,19.90
2018-04-22T10:46:08.807Z,20.20
2018-04-22T10:48:36.256Z,20.10
2018-04-22T10:51:03.717Z,20.30
2018-04-22T10:53:31.160Z,20.40
2018-04-22T10:55:58.612Z,20.40
2018-04-22T10:58:26.066Z,20.50
2018-04-22T11:00:53.516Z,20.50
2018-04-22T11:03:21.100Z,20.60
2018-04-22T11:05:48.573Z,20.70
2018-04-22T11:08:16.017Z,20.70
2018-04-22T11:10:43.444Z,20.80
2018-04-22T11:13:10.903Z,20.80
2018-04-22T11:15:38.344Z,20.80
2018-04-22T11:18:06.556Z,20.80
2018-04-22T11:20:34.033Z,20.70
2018-04-22T11:23:02.483Z,20.90
2018-04-22T11:25:29.928Z,20.90
2018-04-22T11:27:57.399Z,21.00
2018-04-22T11:30:24.844Z,21.00
2018-04-22T11:32:52.300Z,21.10
2018-04-22T11:35:19.806Z,21.00
2018-04-22T11:37:47.240Z,21.00
2018-04-22T11:40:14.684Z,21.10
2018-04-22T11:42:42.147Z,21.10
2018-04-22T11:45:09.589Z,21.10
2018-04-22T11:47:37.040Z,21.30
2018-04-22T11:50:04.499Z,21.40
2018-04-22T11:52:31.932Z,21.40
2018-04-22T11:54:59.359Z,21.40
2018-04-22T11:57:27.598Z,21.40
2018-04-22T11:59:55.111Z,21.30
2018-04-22T12:02:22.549Z,21.40
2018-04-22T12:04:49.967Z,21.40
2018-04-22T12:07:17.412Z,21.30
2018-04-22T12:09:44.856Z,21.10
2018-04-22T12:12:12.300Z,21.00
2018-04-22T12:14:39.783Z,20.80
2018-04-22T12:17:07.216Z,20.80
2018-04-22T12:19:34.664Z,20.60
2018-04-22T12:22:02.112Z,20.60
2018-04-22T12:24:29.544Z,20.50
2018-04-22T12:26:57.773Z,20.40
2018-04-22T12:29:25.204Z,20.40
2018-04-22T12:31:52.651Z,20.40
2018-04-22T12:34:20.878Z,20.40
2018-04-22T12:36:48.329Z,20.40
2018-04-22T12:39:15.758Z,20.50
2018-04-22T12:41:43.203Z,20.70
2018-04-22T12:44:10.646Z,20.90
2018-04-22T12:46:38.841Z,21.20
2018-04-22T12:49:06.298Z,21.10
2018-04-22T12:51:33.750Z,21.20
2018-04-22T12:54:01.190Z,21.40
2018-04-22T12:56:28.664Z,21.40
2018-04-22T12:58:56.107Z,21.30
2018-04-22T13:01:23.556Z,21.20
2018-04-22T13:03:51.004Z,21.10
2018-04-22T13:06:19.205Z,20.90
2018-04-22T13:08:46.660Z,20.90
2018-04-22T13:11:14.111Z,20.80
2018-04-22T13:13:41.549Z,20.70
2018-04-22T13:16:09.000Z,20.60
2018-04-22T13:18:36.441Z,20.60
2018-04-22T13:21:04.645Z,20.40
2018-04-22T13:23:32.091Z,20.50
2018-04-22T13:25:59.584Z,20.40
2018-04-22T13:28:27.005Z,20.40
2018-04-22T13:30:54.456Z,20.40
2018-04-22T13:33:21.900Z,20.50
2018-04-22T13:35:50.105Z,20.50
2018-04-22T13:38:17.565Z,20.50
2018-04-22T13:40:45.017Z,20.40
2018-04-22T13:43:12.453Z,20.40
2018-04-22T13:45:39.909Z,20.40
2018-04-22T13:48:07.348Z,20.30
2018-04-22T13:50:35.551Z,20.30
2018-04-22T13:53:03.282Z,20.30
2018-04-22T13:55:30.697Z,20.30
2018-04-22T13:57:58.133Z,20.40
2018-04-22T14:00:25.578Z,20.50
2018-04-22T14:02:53.008Z,20.70
2018-04-22T14:05:20.444Z,20.90
2018-04-22T14:07:49.140Z,21.10
2018-04-22T14:10:16.625Z,21.10
2018-04-22T14:12:44.065Z,21.20
2018-04-22T14:15:11.507Z,21.20
2018-04-22T14:17:39.716Z,21.40
2018-04-22T14:20:07.162Z,21.40
2018-04-22T14:22:34.613Z,21.50
2018-04-22T14:25:02.090Z,21.80
2018-04-22T14:27:29.501Z,22.20
2018-04-22T14:29:56.962Z,22.90
2018-04-22T14:32:25.161Z,24.40
2018-04-22T14:34:52.592Z,24.30
2018-04-22T14:37:20.047Z,24.50
2018-04-22T14:39:48.294Z,23.80
2018-04-22T14:42:15.737Z,23.70
2018-04-22T14:44:55.088Z,23.30
2018-04-22T14:47:22.537Z,22.90
2018-04-22T14:49:49.977Z,23.10
2018-04-22T14:52:17.424Z,24.00
2018-04-22T14:54:44.865Z,25.00
2018-04-22T14:57:12.326Z,26.00
2018-04-22T14:59:39.779Z,26.70
2018-04-22T15:02:07.240Z,27.20
2018-04-22T15:04:34.659Z,27.50
2018-04-22T15:07:02.113Z,27.60
2018-04-22T15:09:30.311Z,27.60
2018-04-22T15:11:57.762Z,27.50
2018-04-22T15:14:25.224Z,27.40
2018-04-22T15:16:52.655Z,27.10
2018-04-22T15:19:20.109Z,26.80
2018-04-22T15:21:48.321Z,26.00
2018-04-22T15:24:15.768Z,26.00
2018-04-22T15:26:43.194Z,25.50
2018-04-22T15:29:10.651Z,25.20
2018-04-22T15:31:38.092Z,25.10
2018-04-22T15:34:06.308Z,24.80
2018-04-22T15:36:33.746Z,24.80
2018-04-22T15:39:01.193Z,24.80
2018-04-22T15:41:28.615Z,24.70
2018-04-22T15:43:56.073Z,24.60
2018-04-22T15:46:23.535Z,24.60
2018-04-22T15:48:50.980Z,24.60
2018-04-22T15:51:18.445Z,24.50
2018-04-22T15:53:46.651Z,24.40
2018-04-22T15:56:14.089Z,24.40
2018-04-22T15:58:42.311Z,24.60
2018-04-22T16:01:09.761Z,24.50
2018-04-22T16:03:37.217Z,24.60
2018-04-22T16:06:05.433Z,24.80
2018-04-22T16:08:33.638Z,24.90
2018-04-22T16:11:01.093Z,24.90
2018-04-22T16:13:28.553Z,25.10
2018-04-22T16:15:55.976Z,25.40
2018-04-22T16:18:24.187Z,26.40
2018-04-22T16:20:51.633Z,26.40
2018-04-22T16:23:19.078Z,26.80
2018-04-22T16:25:46.536Z,26.70
2018-04-22T16:28:13.985Z,26.30
2018-04-22T16:30:41.424Z,25.90
2018-04-22T16:33:09.653Z,24.90
2018-04-22T16:35:37.098Z,24.80
2018-04-22T16:38:04.539Z,24.50
2018-04-22T16:40:31.993Z,24.10
2018-04-22T16:42:59.427Z,23.80
2018-04-22T16:45:27.638Z,23.30
2018-04-22T16:47:55.093Z,23.30
2018-04-22T16:50:22.537Z,23.10
2018-04-22T16:52:49.964Z,22.90
2018-04-22T16:55:18.183Z,22.60
2018-04-22T16:57:45.631Z,22.50
2018-04-22T17:00:13.077Z,22.40
2018-04-22T17:02:40.535Z,22.30
2018-04-22T17:05:08.008Z,22.20
2018-04-22T17:07:35.444Z,22.00
2018-04-22T17:10:02.884Z,21.90
2018-04-22T17:12:30.328Z,21.80
2018-04-22T17:14:58.597Z,21.50
2018-04-22T17:17:26.004Z,21.50
2018-04-22T17:19:53.522Z,21.40
2018-04-22T17:22:21.723Z,21.10
2018-04-22T17:24:49.177Z,21.10
2018-04-22T17:27:16.670Z,21.00
2018-04-22T17:29:44.097Z,20.90
2018-04-22T17:32:11.567Z,20.90
2018-04-22T17:34:42.129Z,20.80
2018-04-22T17:37:10.433Z,20.60
2018-04-22T17:39:37.871Z,20.60
2018-04-22T17:42:06.089Z,20.40
2018-04-22T17:44:34.286Z,20.30
2018-04-22T17:47:01.732Z,20.30
2018-04-22T17:49:29.929Z,20.20
2018-04-22T17:51:57.406Z,20.20
2018-04-22T17:54:25.637Z,20.10
2018-04-22T17:56:53.063Z,20.00
2018-04-22T17:59:20.545Z,20.00
2018-04-22T18:01:47.990Z,19.90
2018-04-22T18:04:15.425Z,19.80
2018-04-22T18:06:42.886Z,19.80
2018-04-22T18:09:10.331Z,19.70
2018-04-22T18:11:37.773Z,19.60
2018-04-22T18:14:05.238Z,19.60
2018-04-22T18:16:32.682Z,19.50
2018-04-22T18:19:01.063Z,19.40
2018-04-22T18:21:28.352Z,19.40
2018-04-22T18:23:55.791Z,19.40
2018-04-22T18:26:23.266Z,19.30
2018-04-22T18:28:50.714Z,19.20
2018-04-22T18:31:18.176Z,19.10
2018-04-22T18:33:45.634Z,19.00
2018-04-22T18:36:13.106Z,18.90
2018-04-22T18:38:40.572Z,18.90
2018-04-22T18:41:09.248Z,18.80
2018-04-22T18:43:36.694Z,18.80
2018-04-22T18:46:04.174Z,18.70
2018-04-22T18:48:31.605Z,18.70
2018-04-22T18:50:59.042Z,18.60
2018-04-22T18:53:26.513Z,18.50
2018-04-22T18:55:53.947Z,18.50
2018-04-22T18:58:23.981Z,18.40
2018-04-22T19:00:51.440Z,18.40
2018-04-22T19:03:18.894Z,18.40
2018-04-22T19:05:46.327Z,18.30
2018-04-22T19:08:13.779Z,18.30
2018-04-22T19:10:41.264Z,18.20
2018-04-22T19:13:08.695Z,18.20
2018-04-22T19:15:36.164Z,18.20
2018-04-22T19:18:03.607Z,18.20
2018-04-22T19:20:31.058Z,18.10
2018-04-22T19:22:58.591Z,18.10
2018-04-22T19:25:26.780Z,18.00
2018-04-22T19:27:54.233Z,18.00
2018-04-22T19:30:21.694Z,18.00
2018-04-22T19:32:49.135Z,17.90
2018-04-22T19:35:16.614Z,17.90
2018-04-22T19:37:44.052Z,17.90
2018-04-22T19:40:11.501Z,17.90
2018-04-22T19:42:38.958Z,17.80
2018-04-22T19:45:06.404Z,17.80
2018-04-22T19:47:34.611Z,17.70
2018-04-22T19:50:02.076Z,17.70
2018-04-22T19:52:29.529Z,17.70
2018-04-22T19:54:57.026Z,17.60
2018-04-22T19:57:24.430Z,17.60
2018-04-22T19:59:51.884Z,17.60
2018-04-22T20:02:19.315Z,17.60
2018-04-22T20:04:46.766Z,17.60
2018-04-22T20:07:14.981Z,17.50
2018-04-22T20:09:42.456Z,17.50
2018-04-22T20:12:09.919Z,17.50
2018-04-22T20:14:37.376Z,17.40
2018-04-22T20:17:04.830Z,17.40
2018-04-22T20:19:32.295Z,17.30
2018-04-22T20:21:59.754Z,17.30
2018-04-22T20:24:27.196Z,17.30
2018-04-22T20:26:54.669Z,17.20
2018-04-22T20:29:22.127Z,17.20
2018-04-22T20:31:49.538Z,17.20
2018-04-22T20:34:17.004Z,17.20
2018-04-22T20:36:44.545Z,17.20
2018-04-22T20:39:11.993Z,17.10
2018-04-22T20:41:39.427Z,17.10
2018-04-22T20:44:06.905Z,17.10
2018-04-22T20:46:34.335Z,17.00
2018-04-22T20:49:01.768Z,17.00
2018-04-22T20:51:29.228Z,17.00
2018-04-22T20:53:57.433Z,17.00
2018-04-22T20:56:24.863Z,16.90
2018-04-22T20:58:53.094Z,16.90
2018-04-22T21:01:20.539Z,16.90
2018-04-22T21:03:47.978Z,16.90
2018-04-22T21:06:15.447Z,16.80
2018-04-22T21:08:42.897Z,16.80
2018-04-22T21:11:10.323Z,16.80
2018-04-22T21:13:38.550Z,16.70
2018-04-22T21:16:05.982Z,16.70
2018-04-22T21:18:33.448Z,16.80
2018-04-22T21:21:00.892Z,16.70
2018-04-22T21:23:28.337Z,16.70
2018-04-22T21:25:55.817Z,16.70
2018-04-22T21:28:23.256Z,16.70
2018-04-22T21:30:50.688Z,16.70
2018-04-22T21:33:18.139Z,16.70
2018-04-22T21:35:46.365Z,16.60
2018-04-22T21:38:13.800Z,16.60
2018-04-22T21:40:41.241Z,16.60
2018-04-22T21:43:08.711Z,16.50
2018-04-22T21:45:36.153Z,16.50
2018-04-22T21:48:03.600Z,16.50
2018-04-22T21:50:31.075Z,16.40
2018-04-22T21:52:58.539Z,16.40
2018-04-22T21:55:25.986Z,16.40
2018-04-22T21:57:53.443Z,16.40
2018-04-22T22:00:20.877Z,16.40
2018-04-22T22:02:48.325Z,16.30
2018-04-22T22:05:15.808Z,16.30
2018-04-22T22:07:43.239Z,16.30
2018-04-22T22:10:11.449Z,16.30
2018-04-22T22:12:38.913Z,16.30
2018-04-22T22:15:06.357Z,16.30
2018-04-22T22:17:33.828Z,16.20
2018-04-22T22:20:01.268Z,16.20
2018-04-22T22:22:28.720Z,16.20
2018-04-22T22:24:56.183Z,16.20
2018-04-22T22:27:23.621Z,16.20
2018-04-22T22:29:51.057Z,16.20
2018-04-22T22:32:18.537Z,16.20
2018-04-22T22:34:45.981Z,16.20
2018-04-22T22:37:13.425Z,16.20
2018-04-22T22:39:40.879Z,16.20
2018-04-22T22:42:08.325Z,16.20
2018-04-22T22:44:36.522Z,16.20
2018-04-22T22:47:03.972Z,16.20
2018-04-22T22:49:31.417Z,16.20
2018-04-22T22:51:58.861Z,16.20
2018-04-22T22:54:27.085Z,16.20
2018-04-22T22:56:54.539Z,16.20
2018-04-22T22:59:21.985Z,16.20
2018-04-22T23:01:49.446Z,16.20
2018-04-22T23:04:16.917Z,16.20
2018-04-22T23:06:44.336Z,16.20
2018-04-22T23:09:11.806Z,16.20
2018-04-22T23:11:39.272Z,16.20
2018-04-22T23:14:06.729Z,16.20
2018-04-22T23:16:34.176Z,16.20
2018-04-22T23:19:01.613Z,16.20
2018-04-22T23:21:29.052Z,16.20
2018-04-22T23:23:57.276Z,16.30
2018-04-22T23:26:24.720Z,16.20
2018-04-22T23:28:52.165Z,16.30
2018-04-22T23:31:19.634Z,16.30
2018-04-22T23:33:47.075Z,16.30
2018-04-22T23:36:14.529Z,16.30
2018-04-22T23:38:41.988Z,16.30
2018-04-22T23:41:09.433Z,16.30
2018-04-22T23:43:36.883Z,16.30
2018-04-22T23:46:04.343Z,16.30
2018-04-22T23:48:31.778Z,16.30
2018-04-22T23:50:59.993Z,16.30
2018-04-22T23:53:27.455Z,16.30
2018-04-22T23:55:54.892Z,16.30
2018-04-22T23:58:22.324Z,16.30
